createdAt,value
2016-11-15T00:00:59.321Z,91.14
2016-11-15T00:02:08.665Z,92.18
2016-11-15T00:03:17.284Z,91.66
2016-11-15T00:04:26.225Z,91.52
2016-11-15T00:05:35.172Z,91.33
2016-11-15T00:06:44.119Z,91.28
2016-11-15T00:07:53.435Z,91.42
2016-11-15T00:09:02.052Z,91.9
2016-11-15T00:10:10.673Z,91.47
2016-11-15T00:11:19.295Z,91.71
2016-11-15T00:12:28.894Z,91.42
2016-11-15T00:13:37.866Z,91.47
2016-11-15T00:14:46.808Z,92.38
2016-11-15T00:15:55.441Z,92.09
2016-11-15T00:17:04.716Z,92.47
2016-11-15T00:18:13.346Z,92.94
2016-11-15T00:19:22.018Z,92.47
2016-11-15T00:20:30.641Z,92.57
2016-11-15T00:21:39.583Z,92.94
2016-11-15T00:22:48.203Z,93.04
2016-11-15T00:23:57.472Z,92.57
2016-11-15T00:25:06.145Z,92.57
2016-11-15T00:26:15.420Z,91.33
2016-11-15T00:27:24.365Z,91.85
2016-11-15T00:28:33.306Z,92.33
2016-11-15T00:29:42.577Z,92.38
2016-11-15T00:30:51.546Z,93.13
2016-11-15T00:32:00.159Z,94.18
2016-11-15T00:33:09.429Z,93.61
2016-11-15T00:34:18.037Z,94.18
2016-11-15T00:35:26.657Z,94.18
2016-11-15T00:36:35.651Z,93.89
2016-11-15T00:37:44.914Z,93.61
2016-11-15T00:38:53.852Z,93.51
2016-11-15T00:40:03.441Z,94.46
2016-11-15T00:41:12.060Z,94.46
2016-11-15T00:42:21.064Z,94.84
2016-11-15T00:43:30.326Z,93.99
2016-11-15T00:44:39.257Z,92.76
2016-11-15T00:45:48.204Z,92.61
2016-11-15T00:46:56.817Z,93.75
2016-11-15T00:48:05.488Z,93.61
2016-11-15T00:49:14.117Z,93.41
2016-11-15T00:50:23.090Z,93.41
2016-11-15T00:51:32.366Z,93.7
2016-11-15T00:52:41.641Z,92.99
2016-11-15T00:53:50.587Z,91.94
2016-11-15T00:54:59.521Z,91.56
2016-11-15T00:56:08.134Z,91.94
2016-11-15T00:57:17.063Z,91.85
2016-11-15T00:58:26.001Z,92.23
2016-11-15T00:59:34.668Z,93.37
2016-11-15T01:00:43.613Z,92.71
2016-11-15T01:01:52.233Z,93.32
2016-11-15T01:03:00.848Z,93.27
2016-11-15T01:04:10.445Z,93.27
2016-11-15T01:05:19.682Z,93.18
2016-11-15T01:06:28.294Z,91.28
2016-11-15T01:07:37.551Z,91.47
2016-11-15T01:08:46.501Z,92.23
2016-11-15T01:09:55.117Z,92.99
2016-11-15T01:11:04.095Z,92.23
2016-11-15T01:12:12.721Z,91.38
2016-11-15T01:13:21.661Z,93.08
2016-11-15T01:14:30.607Z,92.9
2016-11-15T01:15:39.223Z,93.27
2016-11-15T01:16:48.574Z,92.33
2016-11-15T01:17:57.515Z,91.66
2016-11-15T01:19:06.465Z,91.04
2016-11-15T01:20:15.083Z,91.75
2016-11-15T01:21:23.695Z,92.14
2016-11-15T01:22:32.984Z,92.42
2016-11-15T01:23:42.243Z,93.27
2016-11-15T01:24:51.197Z,93.08
2016-11-15T01:26:00.147Z,93.75
2016-11-15T01:27:09.097Z,92.14
2016-11-15T01:28:18.144Z,92.14
2016-11-15T01:29:27.093Z,92.33
2016-11-15T01:30:36.038Z,92.42
2016-11-15T01:31:45.310Z,92.04
2016-11-15T01:32:53.934Z,92.14
2016-11-15T01:34:03.189Z,92.33
2016-11-15T01:35:12.163Z,92.71
2016-11-15T01:36:20.782Z,93.27
2016-11-15T01:37:29.720Z,92.9
2016-11-15T01:38:38.657Z,92.42
2016-11-15T01:39:47.320Z,92.99
2016-11-15T01:40:56.290Z,92.9
2016-11-15T01:42:05.257Z,92.9
2016-11-15T01:43:14.203Z,93.18
2016-11-15T01:44:22.824Z,91.94
2016-11-15T01:45:32.259Z,91.89
2016-11-15T01:46:41.527Z,92.42
2016-11-15T01:47:50.146Z,92.14
2016-11-15T01:48:59.425Z,93.27
2016-11-15T01:50:08.697Z,92.33
2016-11-15T01:51:18.361Z,92.9
2016-11-15T01:52:26.985Z,92.8
2016-11-15T01:53:35.937Z,92.99
2016-11-15T01:54:44.875Z,93.18
2016-11-15T01:55:53.498Z,92.33
2016-11-15T01:57:02.417Z,93.08
2016-11-15T01:58:11.354Z,92.99
2016-11-15T01:59:20.623Z,92.8
2016-11-15T02:00:29.894Z,92.61
2016-11-15T02:01:39.157Z,92.42
2016-11-15T02:02:48.459Z,92.99
2016-11-15T02:03:57.416Z,92.8
2016-11-15T02:05:06.364Z,93.08
2016-11-15T02:06:15.303Z,93.08
2016-11-15T02:07:24.246Z,93.18
2016-11-15T02:08:33.584Z,93.46
2016-11-15T02:09:42.530Z,93.37
2016-11-15T02:10:51.177Z,93.46
2016-11-15T02:12:00.122Z,93.56
2016-11-15T02:13:08.762Z,93.27
2016-11-15T02:14:18.379Z,93.18
2016-11-15T02:15:27.649Z,93.65
2016-11-15T02:16:36.269Z,93.56
2016-11-15T02:17:44.895Z,93.84
2016-11-15T02:18:54.176Z,93.65
2016-11-15T02:20:02.904Z,93.27
2016-11-15T02:21:11.859Z,93.84
2016-11-15T02:22:20.802Z,93.84
2016-11-15T02:23:30.078Z,93.56
2016-11-15T02:24:38.704Z,93.56
2016-11-15T02:25:51.447Z,93.27
2016-11-15T02:27:00.715Z,92.8
2016-11-15T02:28:09.341Z,92.71
2016-11-15T02:29:17.961Z,92.9
2016-11-15T02:30:26.586Z,92.9
2016-11-15T02:31:35.908Z,93.27
2016-11-15T02:32:44.857Z,92.99
2016-11-15T02:33:53.470Z,93.84
2016-11-15T02:35:02.411Z,93.41
2016-11-15T02:36:11.347Z,93.65
2016-11-15T02:37:20.322Z,93.84
2016-11-15T02:38:29.595Z,93.65
2016-11-15T02:39:38.223Z,93.75
2016-11-15T02:40:47.183Z,93.65
2016-11-15T02:41:55.843Z,93.13
2016-11-15T02:43:04.830Z,93.23
2016-11-15T02:44:14.095Z,93.27
2016-11-15T02:45:22.721Z,93.65
2016-11-15T02:46:31.658Z,94.03
2016-11-15T02:47:40.925Z,93.56
2016-11-15T02:48:49.895Z,93.7
2016-11-15T02:49:58.543Z,93.23
2016-11-15T02:51:07.488Z,93.46
2016-11-15T02:52:16.110Z,93.08
2016-11-15T02:53:24.729Z,93.32
2016-11-15T02:54:33.402Z,93.84
2016-11-15T02:55:42.339Z,93.7
2016-11-15T02:57:04.027Z,92.66
2016-11-15T02:58:13.302Z,93.75
2016-11-15T02:59:22.556Z,93.41
2016-11-15T03:00:31.221Z,93.89
2016-11-15T03:01:40.169Z,94.03
2016-11-15T03:02:48.822Z,94.42
2016-11-15T03:03:57.768Z,92.85
2016-11-15T03:05:07.033Z,92.75
2016-11-15T03:06:16.644Z,93.51
2016-11-15T03:07:25.594Z,93.56
2016-11-15T03:08:34.861Z,93.7
2016-11-15T03:09:43.855Z,93.04
2016-11-15T03:10:52.807Z,93.99
2016-11-15T03:12:02.061Z,94.13
2016-11-15T03:13:11.017Z,94.74
2016-11-15T03:14:19.952Z,95.07
2016-11-15T03:15:28.895Z,93.8
2016-11-15T03:16:37.509Z,92.94
2016-11-15T03:17:46.131Z,93.6
2016-11-15T03:18:55.075Z,94.08
2016-11-15T03:20:04.383Z,93.13
2016-11-15T03:21:12.999Z,93.51
2016-11-15T03:22:22.266Z,94.18
2016-11-15T03:23:31.263Z,95.36
2016-11-15T03:24:40.215Z,93.6
2016-11-15T03:25:49.484Z,94.74
2016-11-15T03:26:58.106Z,94.93
2016-11-15T03:28:07.048Z,94.7
2016-11-15T03:29:16.676Z,93.6
2016-11-15T03:30:26.256Z,93.8
2016-11-15T03:31:35.238Z,93.99
2016-11-15T03:32:44.504Z,94.37
2016-11-15T03:33:53.117Z,93.99
2016-11-15T03:35:02.150Z,93.51
2016-11-15T03:36:11.087Z,93.04
2016-11-15T03:37:19.712Z,92.94
2016-11-15T03:38:28.331Z,94.08
2016-11-15T03:39:37.272Z,93.32
2016-11-15T03:40:45.983Z,93.89
2016-11-15T03:41:54.603Z,93.89
2016-11-15T03:43:04.213Z,93.51
2016-11-15T03:44:12.834Z,93.7
2016-11-15T03:45:21.462Z,92.94
2016-11-15T03:46:31.068Z,92.75
2016-11-15T03:47:40.338Z,93.13
2016-11-15T03:48:49.287Z,93.51
2016-11-15T03:49:58.548Z,94.46
2016-11-15T03:51:07.169Z,94.74
2016-11-15T03:52:16.536Z,94.74
2016-11-15T03:53:25.478Z,94.51
2016-11-15T03:54:35.400Z,94.08
2016-11-15T03:55:44.027Z,94.65
2016-11-15T03:56:52.973Z,94.27
2016-11-15T03:58:02.005Z,94.08
2016-11-15T03:59:10.625Z,94.08
2016-11-15T04:00:19.247Z,94.18
2016-11-15T04:01:28.564Z,94.93
2016-11-15T04:02:37.499Z,94.37
2016-11-15T04:03:46.493Z,94.18
2016-11-15T04:04:55.432Z,93.51
2016-11-15T04:06:04.055Z,93.7
2016-11-15T04:07:13.319Z,93.99
2016-11-15T04:08:21.929Z,94.74
2016-11-15T04:09:31.241Z,94.74
2016-11-15T04:10:40.182Z,94.74
2016-11-15T04:11:48.802Z,94.74
2016-11-15T04:12:57.748Z,95.03
2016-11-15T04:14:06.367Z,94.93
2016-11-15T04:15:15.394Z,94.08
2016-11-15T04:16:24.671Z,95.41
2016-11-15T04:17:33.617Z,95.89
2016-11-15T04:18:42.236Z,94.56
2016-11-15T04:19:51.832Z,92.94
2016-11-15T04:21:01.524Z,93.8
2016-11-15T04:22:10.792Z,93.27
2016-11-15T04:23:19.739Z,94.08
2016-11-15T04:24:28.682Z,93.51
2016-11-15T04:25:37.632Z,93.89
2016-11-15T04:26:46.678Z,93.51
2016-11-15T04:27:55.311Z,94.56
2016-11-15T04:29:03.930Z,95.6
2016-11-15T04:30:12.870Z,94.37
2016-11-15T04:31:22.136Z,93.99
2016-11-15T04:32:31.130Z,95.12
2016-11-15T04:33:40.400Z,95.03
2016-11-15T04:34:49.344Z,94.74
2016-11-15T04:35:57.964Z,94.65
2016-11-15T04:37:06.596Z,93.89
2016-11-15T04:38:15.839Z,94.74
2016-11-15T04:39:24.780Z,95.03
2016-11-15T04:40:33.406Z,95.41
2016-11-15T04:41:42.361Z,95.79
2016-11-15T04:42:51.629Z,94.27
2016-11-15T04:44:00.539Z,94.46
2016-11-15T04:45:09.811Z,95.12
2016-11-15T04:46:18.755Z,93.99
2016-11-15T04:47:27.697Z,93.7
2016-11-15T04:48:36.972Z,93.89
2016-11-15T04:49:46.299Z,93.08
2016-11-15T04:50:55.235Z,93.27
2016-11-15T04:52:04.179Z,93.18
2016-11-15T04:53:13.448Z,93.6
2016-11-15T04:54:22.068Z,94.37
2016-11-15T04:55:31.363Z,93.41
2016-11-15T04:56:40.954Z,92.99
2016-11-15T04:57:49.585Z,93.6
2016-11-15T04:58:58.534Z,92.99
2016-11-15T05:00:07.144Z,93.51
2016-11-15T05:01:15.807Z,94.18
2016-11-15T05:02:24.739Z,94.65
2016-11-15T05:03:33.678Z,95.89
2016-11-15T05:04:42.293Z,94.93
2016-11-15T05:05:51.237Z,94.37
2016-11-15T05:07:00.215Z,94.65
2016-11-15T05:08:08.831Z,94.74
2016-11-15T05:09:18.100Z,94.27
2016-11-15T05:10:27.043Z,93.99
2016-11-15T05:11:35.661Z,94.18
2016-11-15T05:12:44.732Z,94.89
2016-11-15T05:13:53.670Z,94.56
2016-11-15T05:15:02.615Z,94.74
2016-11-15T05:16:11.887Z,93.89
2016-11-15T05:17:20.836Z,93.56
2016-11-15T05:18:30.396Z,93.27
2016-11-15T05:19:39.656Z,93.94
2016-11-15T05:20:48.636Z,94.7
2016-11-15T05:21:57.581Z,94.74
2016-11-15T05:23:06.524Z,94.89
2016-11-15T05:24:15.200Z,94.84
2016-11-15T05:25:23.821Z,94.98
2016-11-15T05:26:32.756Z,94.98
2016-11-15T05:27:42.024Z,94.93
2016-11-15T05:28:50.644Z,93.08
2016-11-15T05:29:59.365Z,93.56
2016-11-15T05:31:08.308Z,93.89
2016-11-15T05:32:16.931Z,94.42
2016-11-15T05:33:26.206Z,93.56
2016-11-15T05:34:35.502Z,93.56
2016-11-15T05:35:45.260Z,92.51
2016-11-15T05:36:53.903Z,93.56
2016-11-15T05:38:03.180Z,94.7
2016-11-15T05:39:11.801Z,95.08
2016-11-15T05:40:20.422Z,94.7
2016-11-15T05:41:30.049Z,94.74
2016-11-15T05:42:38.675Z,94.27
2016-11-15T05:43:47.956Z,95.17
2016-11-15T05:44:57.544Z,95.27
2016-11-15T05:46:06.494Z,94.79
2016-11-15T05:47:16.116Z,94.42
2016-11-15T05:48:24.764Z,94.7
2016-11-15T05:49:33.764Z,94.03
2016-11-15T05:50:42.714Z,93.56
2016-11-15T05:51:51.980Z,93.75
2016-11-15T05:53:00.974Z,93.75
2016-11-15T05:54:09.905Z,94.13
2016-11-15T05:55:18.523Z,93.18
2016-11-15T05:56:28.124Z,92.8
2016-11-15T05:57:36.746Z,93.65
2016-11-15T05:58:46.382Z,93.94
2016-11-15T05:59:54.993Z,93.75
2016-11-15T06:01:03.615Z,93.94
2016-11-15T06:02:13.208Z,93.94
2016-11-15T06:03:22.151Z,93.56
2016-11-15T06:04:31.406Z,94.13
2016-11-15T06:05:40.345Z,93.37
2016-11-15T06:06:49.295Z,93.37
2016-11-15T06:07:58.236Z,93.94
2016-11-15T06:09:07.178Z,94.03
2016-11-15T06:10:16.149Z,94.42
2016-11-15T06:11:25.102Z,94.32
2016-11-15T06:12:34.045Z,93.56
2016-11-15T06:13:42.993Z,93.41
2016-11-15T06:14:51.660Z,94.13
2016-11-15T06:16:00.653Z,94.6
2016-11-15T06:17:09.596Z,94.98
2016-11-15T06:18:18.856Z,93.94
2016-11-15T06:19:27.481Z,95.08
2016-11-15T06:20:36.433Z,94.89
2016-11-15T06:21:45.765Z,95.08
2016-11-15T06:22:54.698Z,95.75
2016-11-15T06:24:03.326Z,94.7
2016-11-15T06:25:12.264Z,94.7
2016-11-15T06:26:21.212Z,95.08
2016-11-15T06:27:30.582Z,94.7
2016-11-15T06:28:40.176Z,93.75
2016-11-15T06:29:49.135Z,93.75
2016-11-15T06:30:58.081Z,93.65
2016-11-15T06:32:06.707Z,94.13
2016-11-15T06:33:15.382Z,94.6
2016-11-15T06:34:24.004Z,94.42
2016-11-15T06:35:32.960Z,93.65
2016-11-15T06:36:41.901Z,94.18
2016-11-15T06:37:51.159Z,93.84
2016-11-15T06:38:59.831Z,93.75
2016-11-15T06:40:08.450Z,94.79
2016-11-15T06:41:17.728Z,94.79
2016-11-15T06:42:26.670Z,93.65
2016-11-15T06:43:35.607Z,93.65
2016-11-15T06:44:44.636Z,93.04
2016-11-15T06:45:53.589Z,92.46
2016-11-15T06:47:02.538Z,92.18
2016-11-15T06:48:11.486Z,93.7
2016-11-15T06:49:20.111Z,93.27
2016-11-15T06:50:29.361Z,93.7
2016-11-15T06:51:38.621Z,93.79
2016-11-15T06:52:47.253Z,92.56
2016-11-15T06:53:56.211Z,93.32
2016-11-15T06:55:05.159Z,94.37
2016-11-15T06:56:14.155Z,94.03
2016-11-15T06:57:23.105Z,93.79
2016-11-15T06:58:31.729Z,93.13
2016-11-15T06:59:40.352Z,92.94
2016-11-15T07:00:49.619Z,94.27
2016-11-15T07:01:58.612Z,93.6
2016-11-15T07:03:07.550Z,93.99
2016-11-15T07:04:16.171Z,94.46
2016-11-15T07:05:25.127Z,93.7
2016-11-15T07:06:34.398Z,94.18
2016-11-15T07:07:43.695Z,94.89
2016-11-15T07:08:52.645Z,94.46
2016-11-15T07:10:01.595Z,94.08
2016-11-15T07:11:10.235Z,93.79
2016-11-15T07:12:19.550Z,94.08
2016-11-15T07:13:28.524Z,93.7
2016-11-15T07:14:37.480Z,93.6
2016-11-15T07:15:46.115Z,93.41
2016-11-15T07:16:55.063Z,93.13
2016-11-15T07:18:04.331Z,92.85
2016-11-15T07:19:13.325Z,93.7
2016-11-15T07:20:22.288Z,93.6
2016-11-15T07:21:31.242Z,93.51
2016-11-15T07:22:40.181Z,93.7
2016-11-15T07:23:48.834Z,93.41
2016-11-15T07:24:58.153Z,92.08
2016-11-15T07:26:07.106Z,92.8
2016-11-15T07:27:16.083Z,93.7
2016-11-15T07:28:25.026Z,93.13
2016-11-15T07:29:34.304Z,92.37
2016-11-15T07:30:43.021Z,93.51
2016-11-15T07:31:51.645Z,93.6
2016-11-15T07:33:00.287Z,93.13
2016-11-15T07:34:08.921Z,94.56
2016-11-15T07:35:17.868Z,94.46
2016-11-15T07:36:26.592Z,93.99
2016-11-15T07:37:35.540Z,93.6
2016-11-15T07:38:44.164Z,93.13
2016-11-15T07:39:52.788Z,93.13
2016-11-15T07:41:01.728Z,93.04
2016-11-15T07:42:10.416Z,93.51
2016-11-15T07:43:19.364Z,94.27
2016-11-15T07:44:27.997Z,93.7
2016-11-15T07:45:37.253Z,93.32
2016-11-15T07:46:45.898Z,93.79
2016-11-15T07:47:55.225Z,93.7
2016-11-15T07:49:04.166Z,93.99
2016-11-15T07:50:13.100Z,93.04
2016-11-15T07:51:22.048Z,93.99
2016-11-15T07:52:31.652Z,93.89
2016-11-15T07:53:40.657Z,93.7
2016-11-15T07:54:49.290Z,93.08
2016-11-15T07:55:58.240Z,93.75
2016-11-15T07:57:07.185Z,93.27
2016-11-15T07:58:16.132Z,93.79
2016-11-15T07:59:25.208Z,94.42
2016-11-15T08:00:34.486Z,93.65
2016-11-15T08:01:43.107Z,93.65
2016-11-15T08:02:52.386Z,93.79
2016-11-15T08:04:01.361Z,92.61
2016-11-15T08:05:10.567Z,94.03
2016-11-15T08:06:19.535Z,93.75
2016-11-15T08:07:28.153Z,94.32
2016-11-15T08:08:37.092Z,93.75
2016-11-15T08:09:46.027Z,93.75
2016-11-15T08:10:55.644Z,93.08
2016-11-15T08:12:04.918Z,93.27
2016-11-15T08:13:14.189Z,94.22
2016-11-15T08:14:23.502Z,93.75
2016-11-15T08:15:32.450Z,94.03
2016-11-15T08:16:41.689Z,94.13
2016-11-15T08:17:50.635Z,93.18
2016-11-15T08:18:59.911Z,93.18
2016-11-15T08:20:09.168Z,93.55
2016-11-15T08:21:17.789Z,93.84
2016-11-15T08:22:26.787Z,92.99
2016-11-15T08:23:35.737Z,93.18
2016-11-15T08:24:45.920Z,93.08
2016-11-15T08:25:54.872Z,92.41
2016-11-15T08:27:04.155Z,92.27
2016-11-15T08:28:13.456Z,93.27
2016-11-15T08:29:23.059Z,93.37
2016-11-15T08:30:31.681Z,94.79
2016-11-15T08:31:40.950Z,94.03
2016-11-15T08:32:49.577Z,93.46
2016-11-15T08:33:58.296Z,94.7
2016-11-15T08:35:07.241Z,94.32
2016-11-15T08:36:16.516Z,93.23
2016-11-15T08:37:25.146Z,92.36
2016-11-15T08:38:34.097Z,92.84
2016-11-15T08:39:43.022Z,92.18
2016-11-15T08:40:51.984Z,92.36
2016-11-15T08:42:00.608Z,93.13
2016-11-15T08:43:09.564Z,92.18
2016-11-15T08:44:18.511Z,91.99
2016-11-15T08:45:27.853Z,91.51
2016-11-15T08:46:36.807Z,92.36
2016-11-15T08:47:45.768Z,91.8
2016-11-15T08:48:54.395Z,91.27
2016-11-15T08:50:03.341Z,90.89
2016-11-15T08:51:12.401Z,91.84
2016-11-15T08:52:21.679Z,92.08
2016-11-15T08:53:30.941Z,92.75
2016-11-15T08:54:39.569Z,92.84
2016-11-15T08:55:48.535Z,91.37
2016-11-15T08:56:57.851Z,91.17
2016-11-15T08:58:06.467Z,92.56
2016-11-15T08:59:15.087Z,93.18
2016-11-15T09:00:24.033Z,93.6
2016-11-15T09:01:32.662Z,93.23
2016-11-15T09:02:41.655Z,94.56
2016-11-15T09:03:50.951Z,93.13
2016-11-15T09:05:00.042Z,92.84
2016-11-15T09:06:08.990Z,93.74
2016-11-15T09:07:17.822Z,93.89
2016-11-15T09:08:26.944Z,91.84
2016-11-15T09:09:36.710Z,91.56
2016-11-15T09:10:46.033Z,91.56
2016-11-15T09:11:55.065Z,92.32
2016-11-15T09:13:04.769Z,92.32
2016-11-15T09:14:14.480Z,92.89
2016-11-15T09:15:23.760Z,92.6
2016-11-15T09:16:33.031Z,93.23
2016-11-15T09:17:42.018Z,92.6
2016-11-15T09:18:50.636Z,93.18
2016-11-15T09:19:59.363Z,93.08
2016-11-15T09:21:07.985Z,92.13
2016-11-15T09:22:16.943Z,92.89
2016-11-15T09:23:25.890Z,92.6
2016-11-15T09:24:34.829Z,93.08
2016-11-15T09:25:43.814Z,92.22
2016-11-15T09:26:53.417Z,91.84
2016-11-15T09:28:03.009Z,91.65
2016-11-15T09:29:11.646Z,91.56
2016-11-15T09:30:20.591Z,92.41
2016-11-15T09:31:29.838Z,91.84
2016-11-15T09:32:38.784Z,91.79
2016-11-15T09:33:48.057Z,91.22
2016-11-15T09:34:57.541Z,90.75
2016-11-15T09:36:06.169Z,91.13
2016-11-15T09:37:15.581Z,92.51
2016-11-15T09:38:24.196Z,92.22
2016-11-15T09:39:33.142Z,91.75
2016-11-15T09:40:43.086Z,92.65
2016-11-15T09:41:52.076Z,93.08
2016-11-15T09:43:01.123Z,92.7
2016-11-15T09:44:10.075Z,92.03
2016-11-15T09:45:18.728Z,92.94
2016-11-15T09:46:27.347Z,92.46
2016-11-15T09:47:36.623Z,91.89
2016-11-15T09:48:45.621Z,92.27
2016-11-15T09:49:54.252Z,92.74
2016-11-15T09:51:03.201Z,92.99
2016-11-15T09:52:12.147Z,92.18
2016-11-15T09:53:21.095Z,93.94
2016-11-15T09:54:30.426Z,93.03
2016-11-15T09:55:39.695Z,92.74
2016-11-15T09:56:48.695Z,91.51
2016-11-15T09:57:57.972Z,92.46
2016-11-15T09:59:07.570Z,92.08
2016-11-15T10:00:16.243Z,92.36
2016-11-15T10:01:24.869Z,92.36
2016-11-15T10:02:34.142Z,93.32
2016-11-15T10:03:42.770Z,93.32
2016-11-15T10:04:51.727Z,92.94
2016-11-15T10:06:00.781Z,91.79
2016-11-15T10:07:09.768Z,92.13
2016-11-15T10:08:19.580Z,92.22
2016-11-15T10:09:28.841Z,91.84
2016-11-15T10:10:38.435Z,91.79
2016-11-15T10:11:47.123Z,91.94
2016-11-15T10:12:55.754Z,91.79
2016-11-15T10:14:04.398Z,91.6
2016-11-15T10:15:13.669Z,91.65
2016-11-15T10:16:22.289Z,91.46
2016-11-15T10:17:31.332Z,91.74
2016-11-15T10:18:40.601Z,91.99
2016-11-15T10:19:49.561Z,92.89
2016-11-15T10:20:58.185Z,92.03
2016-11-15T10:22:07.125Z,92.22
2016-11-15T10:23:16.150Z,91.74
2016-11-15T10:24:25.423Z,93.27
2016-11-15T10:25:34.055Z,92.6
2016-11-15T10:26:43.011Z,91.65
2016-11-15T10:27:51.648Z,91.84
2016-11-15T10:29:00.335Z,91.65
2016-11-15T10:30:09.281Z,91.84
2016-11-15T10:31:17.896Z,91.94
2016-11-15T10:32:27.177Z,90.98
2016-11-15T10:33:36.151Z,92.69
2016-11-15T10:34:45.506Z,91.65
2016-11-15T10:35:54.780Z,91.74
2016-11-15T10:37:03.735Z,91.65
2016-11-15T10:38:12.363Z,91.74
2016-11-15T10:39:21.645Z,91.6
2016-11-15T10:40:30.637Z,90.08
2016-11-15T10:41:39.932Z,89.89
2016-11-15T10:42:49.211Z,89.31
2016-11-15T10:43:58.165Z,92.17
2016-11-15T10:45:07.124Z,91.94
2016-11-15T10:46:16.460Z,91.98
2016-11-15T10:47:25.789Z,91.79
2016-11-15T10:48:34.796Z,92.32
2016-11-15T10:49:43.755Z,91.98
2016-11-15T10:50:53.036Z,91.88
2016-11-15T10:52:02.675Z,91.65
2016-11-15T10:53:11.943Z,91.31
2016-11-15T10:54:20.890Z,92.65
2016-11-15T10:55:29.835Z,92.6
2016-11-15T10:56:38.783Z,92.5
2016-11-15T10:57:48.075Z,92.6
2016-11-15T10:58:57.028Z,92.74
2016-11-15T11:00:06.435Z,92.55
2016-11-15T11:01:15.103Z,93.98
2016-11-15T11:02:24.047Z,94.32
2016-11-15T11:03:33.245Z,93.88
2016-11-15T11:04:41.957Z,94.41
2016-11-15T11:05:50.959Z,93.79
2016-11-15T11:06:59.612Z,93.7
2016-11-15T11:08:08.656Z,95.03
2016-11-15T11:09:17.434Z,94.27
2016-11-15T11:10:27.041Z,93.7
2016-11-15T11:11:36.500Z,93.51
2016-11-15T11:12:45.454Z,93.32
2016-11-15T11:13:55.656Z,92.27
2016-11-15T11:15:05.303Z,92.88
2016-11-15T11:16:14.011Z,92.74
2016-11-15T11:17:23.339Z,92.79
2016-11-15T11:18:32.617Z,92.79
2016-11-15T11:19:42.393Z,92.79
2016-11-15T11:20:51.446Z,93.88
2016-11-15T11:22:01.038Z,93.88
2016-11-15T11:23:10.683Z,93.03
2016-11-15T11:24:19.350Z,93.08
2016-11-15T11:25:28.958Z,92.12
2016-11-15T11:26:37.627Z,92.41
2016-11-15T11:27:46.915Z,92.41
2016-11-15T11:28:55.540Z,92.41
2016-11-15T11:30:04.491Z,92.41
2016-11-15T11:31:13.128Z,92.6
2016-11-15T11:32:21.841Z,93.46
2016-11-15T11:33:30.776Z,93.36
2016-11-15T11:34:39.749Z,94.32
2016-11-15T11:35:48.710Z,93.55
2016-11-15T11:36:57.344Z,93.27
2016-11-15T11:38:06.350Z,93.46
2016-11-15T11:39:14.978Z,93.55
2016-11-15T11:40:23.610Z,94.03
2016-11-15T11:41:33.205Z,93.27
2016-11-15T11:42:42.152Z,93.46
2016-11-15T11:43:51.449Z,92.41
2016-11-15T11:45:00.400Z,91.78
2016-11-15T11:46:09.039Z,92.41
2016-11-15T11:47:18.342Z,93.46
2016-11-15T11:48:27.318Z,93.93
2016-11-15T11:49:36.635Z,94.22
2016-11-15T11:50:45.583Z,94.12
2016-11-15T11:51:55.177Z,93.36
2016-11-15T11:53:04.127Z,93.46
2016-11-15T11:54:13.082Z,94.12
2016-11-15T11:55:22.658Z,92.41
2016-11-15T11:56:31.600Z,93.46
2016-11-15T11:57:40.571Z,93.27
2016-11-15T11:58:49.210Z,94.12
2016-11-15T11:59:58.846Z,94.12
2016-11-15T12:01:08.151Z,93.93
2016-11-15T12:02:16.822Z,92.69
2016-11-15T12:03:26.088Z,93.7
2016-11-15T12:04:34.712Z,93.93
2016-11-15T12:05:43.345Z,93.93
2016-11-15T12:06:52.995Z,94.03
2016-11-15T12:08:01.619Z,94.12
2016-11-15T12:09:10.906Z,93.51
2016-11-15T12:10:19.854Z,94.65
2016-11-15T12:11:28.810Z,94.03
2016-11-15T12:12:37.864Z,94.98
2016-11-15T12:13:47.135Z,94.22
2016-11-15T12:14:55.758Z,94.12
2016-11-15T12:16:04.393Z,94.41
2016-11-15T12:17:13.675Z,93.46
2016-11-15T12:18:22.996Z,93.7
2016-11-15T12:19:32.263Z,93.79
2016-11-15T12:20:40.894Z,93.98
2016-11-15T12:21:50.161Z,94.46
2016-11-15T12:22:58.778Z,93.88
2016-11-15T12:24:08.104Z,94.46
2016-11-15T12:25:16.725Z,93.93
2016-11-15T12:26:25.727Z,94.12
2016-11-15T12:27:35.009Z,94.41
2016-11-15T12:28:43.628Z,95.37
2016-11-15T12:29:52.962Z,93.79
2016-11-15T12:31:01.592Z,93.51
2016-11-15T12:32:10.214Z,92.93
2016-11-15T12:33:18.864Z,93.51
2016-11-15T12:34:27.497Z,94.36
2016-11-15T12:35:36.491Z,93.79
2016-11-15T12:36:45.454Z,94.79
2016-11-15T12:37:54.098Z,94.56
2016-11-15T12:39:02.727Z,94.36
2016-11-15T12:40:11.352Z,94.7
2016-11-15T12:41:20.659Z,94.07
2016-11-15T12:42:30.259Z,95.46
2016-11-15T12:43:39.321Z,95.56
2016-11-15T12:44:48.590Z,96.03
2016-11-15T12:45:57.606Z,95.46
2016-11-15T12:47:06.923Z,95.37
2016-11-15T12:48:16.159Z,93.65
2016-11-15T12:49:25.438Z,94.27
2016-11-15T12:50:34.073Z,94.36
2016-11-15T12:51:43.034Z,95.22
2016-11-15T12:52:51.723Z,94.07
2016-11-15T12:54:00.677Z,93.6
2016-11-15T12:55:09.320Z,93.6
2016-11-15T12:56:18.262Z,93.41
2016-11-15T12:57:27.210Z,94.07
2016-11-15T12:58:35.886Z,93.51
2016-11-15T12:59:44.511Z,93.98
2016-11-15T13:00:53.796Z,94.27
2016-11-15T13:02:02.760Z,94.93
2016-11-15T13:03:11.392Z,94.17
2016-11-15T13:04:20.797Z,94.27
2016-11-15T13:05:30.382Z,94.17
2016-11-15T13:06:39.013Z,93.31
2016-11-15T13:07:47.983Z,94.74
2016-11-15T13:08:57.277Z,94.46
2016-11-15T13:10:05.960Z,93.7
2016-11-15T13:11:14.907Z,92.6
2016-11-15T13:12:23.909Z,93.74
2016-11-15T13:13:32.546Z,93.55
2016-11-15T13:14:41.822Z,93.74
2016-11-15T13:15:51.702Z,93.55
2016-11-15T13:17:00.668Z,93.46
2016-11-15T13:18:09.303Z,94.31
2016-11-15T13:19:18.587Z,94.36
2016-11-15T13:20:27.214Z,95.22
2016-11-15T13:21:36.199Z,95.51
2016-11-15T13:22:44.832Z,95.79
2016-11-15T13:23:53.774Z,95.51
2016-11-15T13:25:02.449Z,94.74
2016-11-15T13:26:11.736Z,95.03
2016-11-15T13:27:20.731Z,94.56
2016-11-15T13:28:29.685Z,94.41
2016-11-15T13:29:38.645Z,93.55
2016-11-15T13:30:47.277Z,93.6
2016-11-15T13:31:55.945Z,93.55
2016-11-15T13:33:04.950Z,94.07
2016-11-15T13:34:13.912Z,93.74
2016-11-15T13:35:22.533Z,94.03
2016-11-15T13:36:31.196Z,93.26
2016-11-15T13:37:39.822Z,94.03
2016-11-15T13:38:48.806Z,94.12
2016-11-15T13:39:57.750Z,95.12
2016-11-15T13:41:06.698Z,96.27
2016-11-15T13:42:15.675Z,95.03
2016-11-15T13:43:24.634Z,94.03
2016-11-15T13:44:33.661Z,94.79
2016-11-15T13:45:42.607Z,95.65
2016-11-15T13:46:51.229Z,93.93
2016-11-15T13:48:00.511Z,94.6
2016-11-15T13:49:09.788Z,93.65
2016-11-15T13:50:18.799Z,93.65
2016-11-15T13:51:27.756Z,94.03
2016-11-15T13:52:36.727Z,94.12
2016-11-15T13:53:45.675Z,94.41
2016-11-15T13:54:54.622Z,95.08
2016-11-15T13:56:03.634Z,95.08
2016-11-15T13:57:12.924Z,94.7
2016-11-15T13:58:21.872Z,94.51
2016-11-15T13:59:30.491Z,94.41
2016-11-15T14:00:39.128Z,94.27
2016-11-15T14:01:48.775Z,94.51
2016-11-15T14:02:57.739Z,93.84
2016-11-15T14:04:06.696Z,94.6
2016-11-15T14:05:15.333Z,95.08
2016-11-15T14:06:24.653Z,95.46
2016-11-15T14:07:33.625Z,95.46
2016-11-15T14:08:42.918Z,96.08
2016-11-15T14:09:51.549Z,94.41
2016-11-15T14:11:00.174Z,94.6
2016-11-15T14:12:08.800Z,96.22
2016-11-15T14:13:18.126Z,95.56
2016-11-15T14:14:27.081Z,95.17
2016-11-15T14:15:35.712Z,95.17
2016-11-15T14:16:44.663Z,95.65
2016-11-15T14:17:53.621Z,94.89
2016-11-15T14:19:03.001Z,93.6
2016-11-15T14:20:12.281Z,93.6
2016-11-15T14:21:20.904Z,94.12
2016-11-15T14:22:30.185Z,94.65
2016-11-15T14:23:39.136Z,94.6
2016-11-15T14:24:48.215Z,95.75
2016-11-15T14:25:57.170Z,96.03
2016-11-15T14:27:06.437Z,95.27
2016-11-15T14:28:16.035Z,95.46
2016-11-15T14:29:25.317Z,95.46
2016-11-15T14:30:34.236Z,96.7
2016-11-15T14:31:43.515Z,95.94
2016-11-15T14:32:52.139Z,94.79
2016-11-15T14:34:01.092Z,94.79
2016-11-15T14:35:10.362Z,94.31
2016-11-15T14:36:19.090Z,95.27
2016-11-15T14:37:28.376Z,95.17
2016-11-15T14:38:37.326Z,94.7
2016-11-15T14:39:45.955Z,94.65
2016-11-15T14:40:54.916Z,95.12
2016-11-15T14:42:04.003Z,95.27
2016-11-15T14:43:13.931Z,94.46
2016-11-15T14:44:22.570Z,94.46
2016-11-15T14:45:31.223Z,94.07
2016-11-15T14:46:39.868Z,94.46
2016-11-15T14:47:49.532Z,94.07
2016-11-15T14:48:58.496Z,95.03
2016-11-15T14:50:07.454Z,95.46
2016-11-15T14:51:16.088Z,95.94
2016-11-15T14:52:25.380Z,94.65